Terminal Aerodrome Forecast
Issued by NWS

Home | Current Version | Previous Version | Text Only | Print | Product List | Glossary On
Versions: 1 2 3 4 5 6 7 8 9 10 11 12 13 14 15 16 17 18 19
000
FTUS43 KLSX 191200 AAA
TAFCPS
TAF AMD
KCPS 191243Z 1913/2012 00000KT P6SM SKC
     FM191400 14007KT P6SM SKC
     FM200600 18004KT P6SM SCT250=

USA.gov is the U.S. government's official web portal to all federal, state and local government web resources and services.